createdAt,value
2023-05-09T00:01:53.896Z,18.24
2023-05-09T00:04:21.192Z,18.07
2023-05-09T00:06:48.454Z,18.16
2023-05-09T00:09:15.620Z,18.12
2023-05-09T00:11:43.427Z,18.36
2023-05-09T00:14:12.433Z,18.16
2023-05-09T00:16:40.171Z,18.17
2023-05-09T00:19:07.618Z,18.04
2023-05-09T00:21:34.902Z,18.16
2023-05-09T00:24:02.189Z,18.12
2023-05-09T00:26:29.412Z,17.96
2023-05-09T00:28:56.592Z,18.11
2023-05-09T00:31:23.831Z,18.04
2023-05-09T00:33:50.984Z,18.03
2023-05-09T00:36:18.276Z,18.08
2023-05-09T00:38:45.493Z,18.15
2023-05-09T00:41:12.773Z,18.09
2023-05-09T00:43:39.985Z,17.89
2023-05-09T00:46:07.325Z,17.86
2023-05-09T00:48:35.222Z,17.88
2023-05-09T00:51:02.566Z,17.87
2023-05-09T00:53:29.932Z,18.01
2023-05-09T00:55:57.661Z,18.06
2023-05-09T00:58:25.594Z,18.12
2023-05-09T01:00:52.925Z,17.90
2023-05-09T01:03:20.259Z,18.02
2023-05-09T01:06:13.527Z,18.18
2023-05-09T01:08:53.223Z,17.97
2023-05-09T01:11:33.211Z,17.86
2023-05-09T01:14:21.234Z,17.86
2023-05-09T01:17:03.468Z,17.91
2023-05-09T01:19:51.733Z,17.95
2023-05-09T01:22:20.884Z,17.72
2023-05-09T01:24:54.479Z,17.84
2023-05-09T01:27:44.592Z,17.85
2023-05-09T01:30:13.812Z,17.72
2023-05-09T01:32:43.175Z,17.66
2023-05-09T01:35:14.402Z,17.58
2023-05-09T01:37:43.623Z,17.46
2023-05-09T01:40:14.655Z,17.57
2023-05-09T01:42:54.850Z,17.72
2023-05-09T01:45:22.563Z,17.64
2023-05-09T01:47:50.471Z,17.59
2023-05-09T01:50:19.179Z,17.55
2023-05-09T01:52:52.523Z,17.55
2023-05-09T01:55:21.816Z,17.56
2023-05-09T01:57:50.150Z,17.78
2023-05-09T02:00:19.369Z,17.71
2023-05-09T02:02:46.980Z,17.52
2023-05-09T02:05:17.170Z,17.70
2023-05-09T02:07:46.022Z,17.60
2023-05-09T02:10:13.286Z,17.48
2023-05-09T02:12:40.553Z,17.44
2023-05-09T02:15:08.888Z,17.57
2023-05-09T02:17:40.450Z,17.55
2023-05-09T02:20:10.156Z,17.56
2023-05-09T02:22:37.923Z,17.42
2023-05-09T02:25:07.277Z,17.41
2023-05-09T02:27:34.996Z,17.44
2023-05-09T02:30:04.704Z,17.60
2023-05-09T02:32:34.442Z,17.44
2023-05-09T02:35:02.244Z,17.40
2023-05-09T02:37:29.912Z,17.48
2023-05-09T02:39:57.236Z,17.44
2023-05-09T02:42:26.353Z,17.54
2023-05-09T02:44:53.776Z,17.35
2023-05-09T02:47:21.671Z,17.40
2023-05-09T02:49:48.882Z,17.54
2023-05-09T02:52:16.746Z,17.48
2023-05-09T02:54:44.123Z,17.55
2023-05-09T02:57:11.432Z,17.39
2023-05-09T02:59:38.590Z,17.33
2023-05-09T03:02:06.566Z,17.46
2023-05-09T03:04:34.148Z,17.44
2023-05-09T03:07:01.571Z,17.37
2023-05-09T03:09:32.628Z,17.26
2023-05-09T03:12:00.697Z,17.27
2023-05-09T03:14:27.911Z,17.33
2023-05-09T03:16:55.420Z,17.20
2023-05-09T03:19:31.393Z,17.04
2023-05-09T03:21:58.716Z,17.19
2023-05-09T03:24:28.221Z,17.36
2023-05-09T03:26:55.600Z,17.21
2023-05-09T03:29:23.008Z,17.35
2023-05-09T03:31:50.469Z,17.17
2023-05-09T03:34:17.931Z,17.15
2023-05-09T03:36:45.539Z,16.92
2023-05-09T03:39:15.170Z,16.87
2023-05-09T03:41:45.235Z,16.82
2023-05-09T03:44:13.259Z,16.88
2023-05-09T03:46:40.592Z,17.01
2023-05-09T03:49:08.229Z,17.02
2023-05-09T03:51:36.912Z,16.85
2023-05-09T03:54:08.283Z,16.76
2023-05-09T03:56:36.053Z,16.74
2023-05-09T03:59:03.296Z,16.82
2023-05-09T04:01:31.883Z,16.63
2023-05-09T04:04:00.663Z,16.64
2023-05-09T04:06:30.730Z,16.50
2023-05-09T04:08:58.806Z,16.77
2023-05-09T04:11:26.936Z,16.50
2023-05-09T04:13:55.959Z,16.53
2023-05-09T04:16:28.397Z,16.38
2023-05-09T04:18:55.697Z,16.27
2023-05-09T04:21:22.909Z,16.32
2023-05-09T04:23:54.006Z,16.15
2023-05-09T04:26:28.703Z,16.06
2023-05-09T04:28:57.150Z,16.07
2023-05-09T04:31:24.502Z,16.29
2023-05-09T04:33:52.823Z,16.27
2023-05-09T04:36:21.171Z,16.10
2023-05-09T04:38:48.752Z,15.79
2023-05-09T04:41:20.229Z,15.83
2023-05-09T04:43:47.801Z,15.60
2023-05-09T04:46:15.511Z,15.58
2023-05-09T04:48:43.081Z,15.63
2023-05-09T04:51:10.902Z,15.64
2023-05-09T04:53:38.258Z,15.52
2023-05-09T04:56:06.646Z,15.54
2023-05-09T04:58:38.540Z,15.45
2023-05-09T05:01:09.751Z,15.51
2023-05-09T05:03:37.328Z,15.48
2023-05-09T05:06:05.848Z,15.41
2023-05-09T05:08:33.573Z,15.27
2023-05-09T05:11:01.394Z,15.22
2023-05-09T05:13:29.083Z,15.20
2023-05-09T05:16:00.023Z,15.16
2023-05-09T05:18:27.304Z,15.19
2023-05-09T05:20:55.038Z,15.07
2023-05-09T05:23:22.837Z,15.36
2023-05-09T05:25:53.522Z,15.33
2023-05-09T05:28:21.134Z,15.21
2023-05-09T05:30:48.561Z,15.37
2023-05-09T05:33:15.923Z,15.31
2023-05-09T05:35:43.842Z,15.14
2023-05-09T05:38:11.343Z,15.12
2023-05-09T05:40:39.349Z,15.17
2023-05-09T05:43:07.762Z,14.76
2023-05-09T05:45:37.618Z,14.87
2023-05-09T05:48:07.101Z,14.75
2023-05-09T05:50:34.518Z,14.95
2023-05-09T05:53:02.350Z,15.03
2023-05-09T05:55:29.759Z,15.06
2023-05-09T05:57:57.602Z,15.18
2023-05-09T06:00:25.648Z,15.25
2023-05-09T06:03:00.558Z,15.01
2023-05-09T06:05:44.148Z,15.00
2023-05-09T06:08:12.224Z,15.02
2023-05-09T06:10:39.685Z,14.96
2023-05-09T06:13:07.286Z,14.80
2023-05-09T06:15:36.201Z,14.95
2023-05-09T06:18:03.700Z,14.83
2023-05-09T06:20:31.031Z,14.91
2023-05-09T06:22:58.343Z,14.97
2023-05-09T06:25:25.597Z,15.11
2023-05-09T06:27:54.561Z,15.21
2023-05-09T06:30:26.464Z,15.28
2023-05-09T06:32:55.458Z,15.07
2023-05-09T06:35:23.109Z,14.90
2023-05-09T06:37:50.770Z,14.61
2023-05-09T06:40:18.059Z,14.57
2023-05-09T06:42:45.426Z,14.49
2023-05-09T06:45:13.034Z,14.66
2023-05-09T06:47:40.996Z,14.65
2023-05-09T06:50:08.704Z,14.61
2023-05-09T06:52:36.354Z,14.53
2023-05-09T06:55:04.372Z,14.72
2023-05-09T06:57:31.570Z,14.85
2023-05-09T06:59:58.921Z,14.54
2023-05-09T07:02:26.113Z,14.65
2023-05-09T07:04:53.501Z,14.66
2023-05-09T07:07:20.753Z,14.82
2023-05-09T07:09:50.723Z,14.73
2023-05-09T07:12:20.090Z,14.53
2023-05-09T07:14:47.312Z,14.33
2023-05-09T07:17:22.835Z,14.56
2023-05-09T07:19:51.696Z,14.37
2023-05-09T07:22:19.222Z,14.44
2023-05-09T07:24:46.692Z,14.53
2023-05-09T07:27:16.633Z,14.47
2023-05-09T07:29:43.966Z,14.34
2023-05-09T07:32:11.333Z,14.24
2023-05-09T07:34:39.161Z,14.23
2023-05-09T07:37:06.445Z,14.47
2023-05-09T07:39:33.907Z,14.62
2023-05-09T07:42:01.254Z,14.66
2023-05-09T07:44:28.622Z,14.64
2023-05-09T07:46:55.938Z,14.81
2023-05-09T07:49:23.195Z,14.84
2023-05-09T07:51:51.689Z,14.72
2023-05-09T07:54:19.345Z,14.81
2023-05-09T07:56:46.615Z,14.94
2023-05-09T07:59:14.039Z,14.88
2023-05-09T08:01:41.329Z,14.75
2023-05-09T08:04:09.699Z,14.91
2023-05-09T08:06:37.420Z,15.06
2023-05-09T08:09:07.356Z,15.19
2023-05-09T08:11:35.868Z,14.98
2023-05-09T08:14:03.353Z,15.16
2023-05-09T08:16:30.819Z,15.27
2023-05-09T08:18:58.241Z,15.32
2023-05-09T08:21:26.573Z,15.14
2023-05-09T08:23:53.890Z,14.92
2023-05-09T08:26:22.676Z,15.18
2023-05-09T08:28:50.024Z,15.07
2023-05-09T08:31:17.306Z,15.07
2023-05-09T08:33:45.136Z,15.26
2023-05-09T08:36:12.272Z,15.30
2023-05-09T08:38:40.600Z,15.13
2023-05-09T08:41:07.975Z,15.11
2023-05-09T08:43:35.766Z,15.29
2023-05-09T08:46:12.523Z,15.34
2023-05-09T08:48:39.942Z,15.21
2023-05-09T08:51:07.350Z,15.16
2023-05-09T08:53:35.104Z,15.25
2023-05-09T08:56:05.275Z,15.26
2023-05-09T08:58:32.477Z,15.31
2023-05-09T09:00:59.693Z,15.25
2023-05-09T09:03:27.341Z,15.17
2023-05-09T09:05:54.984Z,15.22
2023-05-09T09:08:23.179Z,15.31
2023-05-09T09:10:50.487Z,15.21
2023-05-09T09:13:18.418Z,15.34
2023-05-09T09:15:47.101Z,15.42
2023-05-09T09:18:29.845Z,15.36
2023-05-09T09:21:00.284Z,15.37
2023-05-09T09:23:29.090Z,15.34
2023-05-09T09:26:00.951Z,15.10
2023-05-09T09:28:28.496Z,15.37
2023-05-09T09:30:55.980Z,15.24
2023-05-09T09:33:25.026Z,15.27
2023-05-09T09:35:54.362Z,15.26
2023-05-09T09:38:22.743Z,15.42
2023-05-09T09:40:52.661Z,15.29
2023-05-09T09:43:20.073Z,15.36
2023-05-09T09:45:51.286Z,15.28
2023-05-09T09:48:19.026Z,15.34
2023-05-09T09:50:48.445Z,15.18
2023-05-09T09:53:16.357Z,15.21
2023-05-09T09:55:51.252Z,15.23
2023-05-09T09:58:22.102Z,15.26
2023-05-09T10:01:04.590Z,15.34
2023-05-09T10:03:42.683Z,15.36
2023-05-09T10:06:11.778Z,15.24
2023-05-09T10:08:39.899Z,15.15
2023-05-09T10:11:07.543Z,15.15
2023-05-09T10:13:38.853Z,14.99
2023-05-09T10:16:06.658Z,15.29
2023-05-09T10:18:34.556Z,15.17
2023-05-09T10:21:03.962Z,15.32
2023-05-09T10:23:33.315Z,15.34
2023-05-09T10:26:15.661Z,15.25
2023-05-09T10:28:45.642Z,15.20
2023-05-09T10:31:22.477Z,15.46
2023-05-09T10:33:50.671Z,15.41
2023-05-09T10:36:23.201Z,15.53
2023-05-09T10:38:51.712Z,15.54
2023-05-09T10:41:20.159Z,15.65
2023-05-09T10:43:48.432Z,15.54
2023-05-09T10:46:17.380Z,15.57
2023-05-09T10:48:45.309Z,15.65
2023-05-09T10:51:13.108Z,15.61
2023-05-09T10:53:46.217Z,15.55
2023-05-09T10:56:35.550Z,15.62
2023-05-09T10:59:03.442Z,15.68
2023-05-09T11:01:39.338Z,15.95
2023-05-09T11:04:15.017Z,16.01
2023-05-09T11:06:51.380Z,15.90
2023-05-09T11:09:28.592Z,15.89
2023-05-09T11:11:57.993Z,15.74
2023-05-09T11:14:31.331Z,15.88
2023-05-09T11:17:00.211Z,16.05
2023-05-09T11:19:53.677Z,15.98
2023-05-09T11:22:28.835Z,16.23
2023-05-09T11:25:07.469Z,16.28
2023-05-09T11:27:49.756Z,16.28
2023-05-09T11:30:19.136Z,16.35
2023-05-09T11:32:50.158Z,16.45
2023-05-09T11:35:20.741Z,16.43
2023-05-09T11:38:05.586Z,16.47
2023-05-09T11:40:34.301Z,16.34
2023-05-09T11:43:02.080Z,16.32
2023-05-09T11:45:31.089Z,16.19
2023-05-09T11:47:58.884Z,16.32
2023-05-09T11:50:26.265Z,16.27
2023-05-09T11:52:54.176Z,16.46
2023-05-09T11:55:32.672Z,16.40
2023-05-09T11:58:00.031Z,16.44
2023-05-09T12:00:27.606Z,16.54
2023-05-09T12:02:54.992Z,16.85
2023-05-09T12:05:23.414Z,16.80
2023-05-09T12:07:52.301Z,17.08
2023-05-09T12:10:21.198Z,16.85
2023-05-09T12:12:53.177Z,16.92
2023-05-09T12:15:21.851Z,16.82
2023-05-09T12:18:07.943Z,17.10
2023-05-09T12:20:41.392Z,17.01
2023-05-09T12:23:14.229Z,16.89
2023-05-09T12:25:55.645Z,16.48
2023-05-09T12:28:23.836Z,16.63
2023-05-09T12:30:52.568Z,16.57
2023-05-09T12:33:20.161Z,16.60
2023-05-09T12:36:03.265Z,16.57
2023-05-09T12:38:30.604Z,16.72
2023-05-09T12:41:05.652Z,16.98
2023-05-09T12:43:34.623Z,17.00
2023-05-09T12:46:02.880Z,16.95
2023-05-09T12:48:35.570Z,16.86
2023-05-09T12:51:04.209Z,16.62
2023-05-09T12:53:31.520Z,16.62
2023-05-09T12:56:03.845Z,16.63
2023-05-09T12:58:34.078Z,16.59
2023-05-09T13:01:03.922Z,16.80
2023-05-09T13:03:37.843Z,17.01
2023-05-09T13:06:06.577Z,16.97
2023-05-09T13:08:33.896Z,17.04
2023-05-09T13:11:14.785Z,17.14
2023-05-09T13:13:43.136Z,17.07
2023-05-09T13:16:11.666Z,17.31
2023-05-09T13:18:40.165Z,17.48
2023-05-09T13:21:07.361Z,17.60
2023-05-09T13:23:34.672Z,17.64
2023-05-09T13:26:01.942Z,17.52
2023-05-09T13:28:29.172Z,17.30
2023-05-09T13:30:56.446Z,17.49
2023-05-09T13:33:26.557Z,17.47
2023-05-09T13:35:54.434Z,17.70
2023-05-09T13:38:21.808Z,17.57
2023-05-09T13:40:49.892Z,17.44
2023-05-09T13:43:17.373Z,17.90
2023-05-09T13:45:44.571Z,17.87
2023-05-09T13:48:11.938Z,17.35
2023-05-09T13:50:39.313Z,17.61
2023-05-09T13:53:06.573Z,18.01
2023-05-09T13:55:34.974Z,17.78
2023-05-09T13:58:02.205Z,17.99
2023-05-09T14:00:29.533Z,17.81
2023-05-09T14:02:56.759Z,17.72
2023-05-09T14:05:24.104Z,18.06
2023-05-09T14:07:51.562Z,17.52
2023-05-09T14:10:18.966Z,17.18
2023-05-09T14:12:47.456Z,17.35
2023-05-09T14:15:14.795Z,17.12
2023-05-09T14:17:43.615Z,17.25
2023-05-09T14:20:11.241Z,17.61
2023-05-09T14:22:38.458Z,17.19
2023-05-09T14:25:06.322Z,16.96
2023-05-09T14:27:36.911Z,17.09
2023-05-09T14:30:04.884Z,17.19
2023-05-09T14:32:32.742Z,17.26
2023-05-09T14:35:00.033Z,17.34
2023-05-09T14:37:27.246Z,17.09
2023-05-09T14:39:54.559Z,17.47
2023-05-09T14:42:21.793Z,17.60
2023-05-09T14:44:50.000Z,17.03
2023-05-09T14:47:17.796Z,17.45
2023-05-09T14:49:45.114Z,17.43
2023-05-09T14:52:13.659Z,17.23
2023-05-09T14:54:42.068Z,17.58
2023-05-09T14:57:09.372Z,17.41
2023-05-09T14:59:37.303Z,17.71
2023-05-09T15:02:04.719Z,17.68
2023-05-09T15:04:32.159Z,17.43
2023-05-09T15:06:59.880Z,17.06
2023-05-09T15:09:27.324Z,17.42
2023-05-09T15:11:55.068Z,16.99
2023-05-09T15:14:22.392Z,17.08
2023-05-09T15:16:52.633Z,17.03
2023-05-09T15:19:21.936Z,17.03
2023-05-09T15:21:49.245Z,17.10
2023-05-09T15:24:16.602Z,17.06
2023-05-09T15:26:44.138Z,16.96
2023-05-09T15:29:11.587Z,17.18
2023-05-09T15:31:39.086Z,17.47
2023-05-09T15:34:06.499Z,17.65
2023-05-09T15:36:36.272Z,17.63
2023-05-09T15:39:05.049Z,17.44
2023-05-09T15:41:32.368Z,17.28
2023-05-09T15:43:59.662Z,17.31
2023-05-09T15:46:27.246Z,17.20
2023-05-09T15:48:56.122Z,17.63
2023-05-09T15:51:23.510Z,17.85
2023-05-09T15:53:51.085Z,18.46
2023-05-09T15:56:18.216Z,18.87
2023-05-09T15:58:46.097Z,18.81
2023-05-09T16:01:14.636Z,18.99
2023-05-09T16:03:42.204Z,18.72
2023-05-09T16:06:09.509Z,19.20
2023-05-09T16:08:37.608Z,19.34
2023-05-09T16:11:05.268Z,19.28
2023-05-09T16:13:34.323Z,19.06
2023-05-09T16:16:03.331Z,19.05
2023-05-09T16:18:30.622Z,19.16
2023-05-09T16:20:57.942Z,18.74
2023-05-09T16:23:25.995Z,18.73
2023-05-09T16:25:53.216Z,18.57
2023-05-09T16:28:23.438Z,18.50
2023-05-09T16:30:51.417Z,18.28
2023-05-09T16:33:18.955Z,18.38
2023-05-09T16:35:49.236Z,18.44
2023-05-09T16:38:16.624Z,18.40
2023-05-09T16:40:43.943Z,18.48
2023-05-09T16:43:12.057Z,18.72
2023-05-09T16:45:39.325Z,18.49
2023-05-09T16:48:07.030Z,18.70
2023-05-09T16:50:34.450Z,18.76
2023-05-09T16:53:02.087Z,18.70
2023-05-09T16:55:29.308Z,18.95
2023-05-09T16:57:56.597Z,19.03
2023-05-09T17:00:24.004Z,18.94
2023-05-09T17:02:51.444Z,18.98
2023-05-09T17:05:19.175Z,19.05
2023-05-09T17:07:46.434Z,18.91
2023-05-09T17:10:14.166Z,18.61
2023-05-09T17:12:42.042Z,18.87
2023-05-09T17:15:09.878Z,19.07
2023-05-09T17:17:37.215Z,18.89
2023-05-09T17:20:04.892Z,18.50
2023-05-09T17:22:32.138Z,18.54
2023-05-09T17:24:59.544Z,18.73
2023-05-09T17:27:27.119Z,18.77
2023-05-09T17:29:54.387Z,18.70
2023-05-09T17:32:21.676Z,18.71
2023-05-09T17:34:49.109Z,18.60
2023-05-09T17:37:17.231Z,18.64
2023-05-09T17:39:44.641Z,18.67
2023-05-09T17:42:12.800Z,18.86
2023-05-09T17:44:41.416Z,18.87
2023-05-09T17:47:10.364Z,18.71
2023-05-09T17:49:37.727Z,18.72
2023-05-09T17:52:05.447Z,18.84
2023-05-09T17:54:32.984Z,18.68
2023-05-09T17:57:01.846Z,18.92
2023-05-09T17:59:29.654Z,18.77
2023-05-09T18:01:57.020Z,18.66
2023-05-09T18:04:25.727Z,18.57
2023-05-09T18:06:53.480Z,18.76
2023-05-09T18:09:22.154Z,18.32
2023-05-09T18:11:49.458Z,18.22
2023-05-09T18:14:16.960Z,18.36
2023-05-09T18:16:44.157Z,18.62
2023-05-09T18:19:11.666Z,18.60
2023-05-09T18:21:39.358Z,18.66
2023-05-09T18:24:09.081Z,18.63
2023-05-09T18:26:36.531Z,18.61
2023-05-09T18:29:04.054Z,18.43
2023-05-09T18:31:31.744Z,18.55
2023-05-09T18:33:58.994Z,18.41
2023-05-09T18:36:29.050Z,18.47
2023-05-09T18:38:56.365Z,18.43
2023-05-09T18:41:24.808Z,18.49
2023-05-09T18:43:52.783Z,18.21
2023-05-09T18:46:21.215Z,18.22
2023-05-09T18:48:51.162Z,18.05
2023-05-09T18:51:19.020Z,17.89
2023-05-09T18:53:49.873Z,18.02
2023-05-09T18:56:18.919Z,17.89
2023-05-09T18:58:48.767Z,18.11
2023-05-09T19:01:16.706Z,18.16
2023-05-09T19:03:46.094Z,17.82
2023-05-09T19:06:14.126Z,17.73
2023-05-09T19:08:42.460Z,17.81
2023-05-09T19:11:11.795Z,17.69
2023-05-09T19:13:40.822Z,17.51
2023-05-09T19:16:08.874Z,17.24
2023-05-09T19:18:36.183Z,17.27
2023-05-09T19:21:03.754Z,17.28
2023-05-09T19:23:31.027Z,17.19
2023-05-09T19:25:58.789Z,17.12
2023-05-09T19:28:26.085Z,17.60
2023-05-09T19:30:53.368Z,17.31
2023-05-09T19:33:20.647Z,17.15
2023-05-09T19:35:48.028Z,17.18
2023-05-09T19:38:15.488Z,17.35
2023-05-09T19:40:42.788Z,17.06
2023-05-09T19:43:10.381Z,17.06
2023-05-09T19:45:37.657Z,17.25
2023-05-09T19:48:05.185Z,17.08
2023-05-09T19:50:32.609Z,17.00
2023-05-09T19:52:59.886Z,16.98
2023-05-09T19:55:27.280Z,17.13
2023-05-09T19:57:54.498Z,17.07
2023-05-09T20:00:21.822Z,17.00
2023-05-09T20:02:49.881Z,17.24
2023-05-09T20:05:17.219Z,17.50
2023-05-09T20:07:44.584Z,16.79
2023-05-09T20:10:15.585Z,16.66
2023-05-09T20:12:43.788Z,16.73
2023-05-09T20:15:12.077Z,16.75
2023-05-09T20:17:39.313Z,16.71
2023-05-09T20:20:06.988Z,16.60
2023-05-09T20:22:34.425Z,16.49
2023-05-09T20:25:01.843Z,16.58
2023-05-09T20:27:29.118Z,16.49
2023-05-09T20:29:56.661Z,16.50
2023-05-09T20:32:24.332Z,16.54
2023-05-09T20:34:51.537Z,16.41
2023-05-09T20:37:18.689Z,16.68
2023-05-09T20:39:46.743Z,16.52
2023-05-09T20:42:13.930Z,16.68
2023-05-09T20:44:42.151Z,16.69
2023-05-09T20:47:09.369Z,16.78
2023-05-09T20:49:36.535Z,16.59
2023-05-09T20:52:04.012Z,16.48
2023-05-09T20:54:31.246Z,16.42
2023-05-09T20:56:58.736Z,16.58
2023-05-09T20:59:25.877Z,16.58
2023-05-09T21:01:55.534Z,16.34
2023-05-09T21:04:23.110Z,16.09
2023-05-09T21:06:50.328Z,16.30
2023-05-09T21:09:18.377Z,16.03
2023-05-09T21:11:46.022Z,16.27
2023-05-09T21:14:13.374Z,16.12
2023-05-09T21:16:40.670Z,16.15
2023-05-09T21:19:08.741Z,16.23
2023-05-09T21:21:36.028Z,16.07
2023-05-09T21:24:04.316Z,16.13
2023-05-09T21:26:31.500Z,16.20
2023-05-09T21:28:58.741Z,16.17
2023-05-09T21:31:26.578Z,15.61
2023-05-09T21:33:53.840Z,15.34
2023-05-09T21:36:21.221Z,15.40
2023-05-09T21:38:48.441Z,15.29
2023-05-09T21:41:15.870Z,15.26
2023-05-09T21:43:43.007Z,14.92
2023-05-09T21:46:10.276Z,14.97
2023-05-09T21:48:37.453Z,14.63
2023-05-09T21:51:04.851Z,14.89
2023-05-09T21:53:32.084Z,14.71
2023-05-09T21:55:59.318Z,14.61
2023-05-09T21:58:26.472Z,14.72
2023-05-09T22:00:53.665Z,14.54
2023-05-09T22:03:21.026Z,14.40
2023-05-09T22:05:48.413Z,14.19
2023-05-09T22:08:15.570Z,14.16
2023-05-09T22:10:42.958Z,14.29
2023-05-09T22:13:10.260Z,14.22
2023-05-09T22:15:37.422Z,13.98
2023-05-09T22:18:04.829Z,14.28
2023-05-09T22:20:32.028Z,13.96
2023-05-09T22:22:59.491Z,13.98
2023-05-09T22:25:26.675Z,14.27
2023-05-09T22:27:55.529Z,13.81
2023-05-09T22:30:22.818Z,13.90
2023-05-09T22:32:50.286Z,13.75
2023-05-09T22:35:17.455Z,13.51
2023-05-09T22:37:44.944Z,13.53
2023-05-09T22:40:14.292Z,13.25
2023-05-09T22:42:41.919Z,13.08
2023-05-09T22:45:09.525Z,13.01
2023-05-09T22:47:36.974Z,13.08
2023-05-09T22:50:04.776Z,13.49
2023-05-09T22:52:32.044Z,13.68
2023-05-09T22:54:59.366Z,13.84
2023-05-09T22:57:26.635Z,14.09
2023-05-09T22:59:53.985Z,14.00
2023-05-09T23:02:21.683Z,13.94
2023-05-09T23:04:49.051Z,13.86
2023-05-09T23:07:16.292Z,13.97
2023-05-09T23:09:44.310Z,13.96
2023-05-09T23:12:11.698Z,14.08
2023-05-09T23:14:39.173Z,13.62
2023-05-09T23:17:06.657Z,13.68
2023-05-09T23:19:33.869Z,13.83
2023-05-09T23:22:01.384Z,13.94
2023-05-09T23:24:28.710Z,13.86
2023-05-09T23:26:56.144Z,13.79
2023-05-09T23:29:23.571Z,13.81
2023-05-09T23:31:51.047Z,13.75
2023-05-09T23:34:18.853Z,13.74
2023-05-09T23:36:46.139Z,13.64
2023-05-09T23:39:13.418Z,13.52
2023-05-09T23:41:40.615Z,13.45
2023-05-09T23:44:07.870Z,13.33
2023-05-09T23:46:35.109Z,13.32
2023-05-09T23:49:02.352Z,13.50
2023-05-09T23:51:29.582Z,13.33
2023-05-09T23:53:57.003Z,13.60
2023-05-09T23:56:25.320Z,13.40
2023-05-09T23:58:52.588Z,13.19
